Time;durP1;ratioP1;P1;durP2;ratioP2;P2;SDS_P1;SDS_P2;PMS_P1;PMS_P2;Temp;Humidity;BMP_temperature;BMP_pressure;BME280_temperature;BME280_humidity;BME280_pressure;Samples;Min_cycle;Max_cycle;Signal;HPM_P1;HPM_P2
2021/10/03 00:00:30;;;;;;;12.73;7.35;;;;;;;-144.51;100.00;69251.94;5119554;28;20391;-68
2021/10/03 00:03:23;;;;;;;10.70;6.22;;;;;;;-144.51;100.00;69251.94;5119622;28;20044;-68
2021/10/03 00:06:11;;;;;;;15.20;7.03;;;;;;;-144.51;100.00;69251.94;5119454;28;20040;-68
2021/10/03 00:08:56;;;;;;;14.48;7.15;;;;;;;-144.51;100.00;69251.94;5115406;28;20051;-68
2021/10/03 00:11:41;;;;;;;12.85;7.10;;;;;;;-144.51;100.00;69251.94;5119398;28;20491;-68
2021/10/03 00:14:26;;;;;;;;;;;;;;;-144.51;100.00;69251.94;5120020;28;20039;-68
2021/10/03 00:17:10;;;;;;;19.25;7.38;;;;;;;-144.51;100.00;69251.94;5119351;28;19911;-68
2021/10/03 00:19:55;;;;;;;;;;;;;;;-144.51;100.00;69251.94;5113279;28;20044;-68
2021/10/03 00:22:41;;;;;;;15.52;6.45;;;;;;;-144.51;100.00;69251.94;5119516;28;20318;-68
2021/10/03 00:25:26;;;;;;;10.70;6.43;;;;;;;-144.51;100.00;69251.94;5119250;28;20035;-68
2021/10/03 00:28:11;;;;;;;15.13;6.68;;;;;;;-144.51;100.00;69251.94;5117369;28;20495;-67
2021/10/03 00:30:56;;;;;;;;;;;;;;;-144.51;100.00;69251.94;5119815;28;20594;-68
2021/10/03 00:33:41;;;;;;;12.70;6.65;;;;;;;-144.51;100.00;69251.94;5119259;28;19912;-68
2021/10/03 00:36:26;;;;;;;;;;;;;;;-144.51;100.00;69251.94;5119731;28;20040;-68
2021/10/03 00:39:12;;;;;;;18.30;8.05;;;;;;;-144.51;100.00;69251.94;5114530;28;20294;-66
2021/10/03 00:41:57;;;;;;;15.57;7.40;;;;;;;-144.51;100.00;69251.94;5112599;28;20418;-67
2021/10/03 00:44:41;;;;;;;;;;;;;;;-144.51;100.00;69251.94;5123240;28;20043;-68
2021/10/03 00:47:27;;;;;;;12.15;7.22;;;;;;;-144.51;100.00;69251.94;5122643;28;19920;-68
2021/10/03 00:50:13;;;;;;;;;;;;;;;-144.51;100.00;69251.94;5123472;28;20040;-67
2021/10/03 00:52:58;;;;;;;12.75;6.25;;;;;;;-144.51;100.00;69251.94;5122778;28;19912;-67
2021/10/03 00:55:44;;;;;;;11.27;6.93;;;;;;;-144.51;100.00;69251.94;5122322;28;20039;-68
2021/10/03 00:58:28;;;;;;;;;;;;;;;-144.51;100.00;69251.94;5120322;28;20036;-68
2021/10/03 01:01:13;;;;;;;20.38;6.75;;;;;;;-144.51;100.00;69251.94;5122570;28;19912;-67
2021/10/03 01:03:58;;;;;;;;;;;;;;;-144.51;100.00;69251.94;5102567;28;20492;-68
2021/10/03 01:06:43;;;;;;;11.07;7.28;;;;;;;-144.51;100.00;69251.94;5116900;28;19916;-68
2021/10/03 01:09:28;;;;;;;11.75;7.68;;;;;;;-144.51;100.00;69251.94;5116793;28;20491;-67
2021/10/03 01:12:13;;;;;;;12.30;7.47;;;;;;;-144.51;100.00;69251.94;5122030;28;20043;-67
2021/10/03 01:14:58;;;;;;;15.82;7.30;;;;;;;-144.51;100.00;69251.94;5122126;28;20051;-65
2021/10/03 01:17:43;;;;;;;13.25;8.13;;;;;;;-144.51;100.00;69251.94;5114919;28;20426;-63
2021/10/03 01:20:29;;;;;;;13.63;7.07;;;;;;;-144.51;100.00;69251.94;5120196;28;20051;-64
2021/10/03 01:23:15;;;;;;;9.98;6.63;;;;;;;-144.51;100.00;69251.94;5118487;28;20051;-63
2021/10/03 01:25:59;;;;;;;12.10;7.13;;;;;;;-144.51;100.00;69251.94;5110232;28;20062;-66
2021/10/03 01:28:44;;;;;;;;;;;;;;;-144.51;100.00;69251.94;5098468;28;20040;-66
2021/10/03 01:31:30;;;;;;;9.75;5.80;;;;;;;-144.51;100.00;69251.94;5101684;28;19912;-66
2021/10/03 01:34:15;;;;;;;11.60;7.35;;;;;;;-144.51;100.00;69251.94;5101602;28;20036;-66
2021/10/03 01:37:00;;;;;;;;;;;;;;;-144.51;100.00;69251.94;5101875;28;20044;-66
2021/10/03 01:39:44;;;;;;;13.30;8.30;;;;;;;-144.51;100.00;69251.94;5104757;28;19912;-64
2021/10/03 01:42:29;;;;;;;;;;;;;;;-144.51;100.00;69251.94;5115640;28;20491;-64
2021/10/03 01:45:16;;;;;;;14.00;7.47;;;;;;;-144.51;100.00;69251.94;5116642;28;19912;-64
2021/10/03 01:48:01;;;;;;;17.35;8.55;;;;;;;-144.51;100.00;69251.94;5119294;28;20507;-64
2021/10/03 01:50:52;;;;;;;13.27;8.38;;;;;;;-144.51;100.00;69251.94;5119770;28;20047;-65
2021/10/03 01:53:43;;;;;;;14.13;8.57;;;;;;;-144.51;100.00;69251.94;5117121;28;20043;-64
2021/10/03 01:56:31;;;;;;;12.15;7.65;;;;;;;-144.51;100.00;69251.94;5121312;28;20032;-64
2021/10/03 01:59:17;;;;;;;13.00;7.68;;;;;;;-144.51;100.00;69251.94;5098928;28;20040;-64
2021/10/03 02:02:02;;;;;;;12.07;8.02;;;;;;;-144.51;100.00;69251.94;5102865;28;20403;-64
2021/10/03 02:04:47;;;;;;;16.38;6.95;;;;;;;-144.51;100.00;69251.94;5119423;28;20491;-64
2021/10/03 02:07:33;;;;;;;;;;;;;;;-144.51;100.00;69251.94;5121257;28;20048;-66
2021/10/03 02:10:18;;;;;;;12.10;7.43;;;;;;;-144.51;100.00;69251.94;5095743;28;20287;-65
2021/10/03 02:13:04;;;;;;;15.05;9.30;;;;;;;-144.51;100.00;69251.94;5094600;28;20044;-66
2021/10/03 02:15:50;;;;;;;14.43;9.40;;;;;;;-144.51;100.00;69251.94;5098403;28;20048;-66
2021/10/03 02:18:39;;;;;;;14.60;8.80;;;;;;;-144.51;100.00;69251.94;5117585;28;20028;-66
2021/10/03 02:21:27;;;;;;;16.83;9.07;;;;;;;-144.51;100.00;69251.94;5120706;28;20043;-66
2021/10/03 02:24:13;;;;;;;15.80;9.02;;;;;;;-144.51;100.00;69251.94;5120794;28;20035;-66
2021/10/03 02:26:58;;;;;;;14.95;8.10;;;;;;;-144.51;100.00;69251.94;5116473;28;20051;-66
2021/10/03 02:29:42;;;;;;;;;;;;;;;-144.51;100.00;69251.94;5113618;28;20047;-66
2021/10/03 02:33:23;;;;;;;14.32;8.52;;;;;;;-144.51;100.00;69251.94;5114995;27;19912;-66
2021/10/03 02:36:09;;;;;;;16.58;8.80;;;;;;;-144.51;100.00;69251.94;5117419;28;20036;-67
2021/10/03 02:38:54;;;;;;;14.90;9.52;;;;;;;-144.51;100.00;69251.94;5111943;28;20036;-68
2021/10/03 02:41:40;;;;;;;15.98;8.27;;;;;;;-144.51;100.00;69251.94;5111575;28;20475;-66
2021/10/03 02:44:24;;;;;;;16.55;8.43;;;;;;;-144.51;100.00;69251.94;5111435;28;20043;-66
2021/10/03 02:47:12;;;;;;;10.98;6.00;;;;;;;-144.51;100.00;69251.94;5115926;28;20048;-66
2021/10/03 02:49:57;;;;;;;14.57;8.85;;;;;;;-144.51;100.00;69251.94;5108820;28;20035;-66
2021/10/03 02:52:42;;;;;;;;;;;;;;;-144.51;100.00;69251.94;5116988;28;20051;-68
2021/10/03 02:55:27;;;;;;;9.95;5.70;;;;;;;-144.51;100.00;69251.94;5118396;28;19911;-64
2021/10/03 02:58:12;;;;;;;9.98;6.32;;;;;;;-144.51;100.00;69251.94;5113069;28;20031;-69
2021/10/03 03:00:56;;;;;;;;;;;;;;;-144.51;100.00;69251.94;5113024;28;20035;-68
2021/10/03 03:03:41;;;;;;;13.70;8.23;;;;;;;-144.51;100.00;69251.94;5114201;28;19911;-68
2021/10/03 03:06:26;;;;;;;22.30;9.98;;;;;;;-144.51;100.00;69251.94;5113712;28;20491;-70
2021/10/03 03:09:11;;;;;;;14.32;9.10;;;;;;;-144.51;100.00;69251.94;5110017;28;20027;-69
2021/10/03 03:11:56;;;;;;;15.57;8.70;;;;;;;-144.51;100.00;69251.94;5114106;28;20391;-68
2021/10/03 03:14:41;;;;;;;;;;;;;;;-144.51;100.00;69251.94;5755718;22;20057;-79
2021/10/03 03:17:25;;;;;;;18.15;9.38;;;;;;;-144.51;100.00;69251.94;5050076;28;20373;-77
2021/10/03 03:20:10;;;;;;;;;;;;;;;-144.51;100.00;69251.94;5049552;28;20040;-79
2021/10/03 03:22:55;;;;;;;20.93;9.20;;;;;;;-144.51;100.00;69251.94;5046902;28;20360;-77
2021/10/03 03:25:40;;;;;;;15.07;8.90;;;;;;;-144.51;100.00;69251.94;5049795;28;20044;-78
2021/10/03 03:28:25;;;;;;;;;;;;;;;-144.51;100.00;69251.94;5045073;28;20041;-77
2021/10/03 03:31:09;;;;;;;17.15;9.02;;;;;;;-144.51;100.00;69251.94;5084320;22;19921;-63
2021/10/03 03:33:54;;;;;;;;;;;;;;;-144.51;100.00;69251.94;5071523;28;20049;-62
2021/10/03 03:36:39;;;;;;;17.02;9.82;;;;;;;-144.51;100.00;69251.94;5069357;28;19913;-64
2021/10/03 03:39:24;;;;;;;9.70;5.88;;;;;;;-144.51;100.00;69251.94;5065097;28;20040;-64
2021/10/03 03:42:09;;;;;;;21.52;8.82;;;;;;;-144.51;100.00;69251.94;5077883;28;20044;-64
2021/10/03 03:44:54;;;;;;;18.42;10.10;;;;;;;-144.51;100.00;69251.94;5078318;28;20430;-64
2021/10/03 03:47:40;;;;;;;;;;;;;;;-144.51;100.00;69251.94;5078479;28;20040;-64
2021/10/03 03:50:24;;;;;;;15.73;9.55;;;;;;;-144.51;100.00;69251.94;5078373;28;19916;-64
2021/10/03 03:53:09;;;;;;;;;;;;;;;-144.51;100.00;69251.94;5078684;28;20041;-64
2021/10/03 03:55:54;;;;;;;14.25;8.63;;;;;;;-144.51;100.00;69251.94;5078250;28;20362;-64
2021/10/03 03:58:39;;;;;;;16.70;9.77;;;;;;;-144.51;100.00;69251.94;5075037;28;20503;-64
2021/10/03 04:01:23;;;;;;;;;;;;;;;-144.51;100.00;69251.94;5078650;28;20040;-62
2021/10/03 04:04:08;;;;;;;14.35;8.82;;;;;;;-144.51;100.00;69251.94;5071909;28;19912;-63
2021/10/03 04:06:53;;;;;;;16.52;9.88;;;;;;;-144.51;100.00;69251.94;5078336;28;20036;-63
2021/10/03 04:09:37;;;;;;;14.35;8.68;;;;;;;-144.51;100.00;69251.94;5072364;28;20048;-63
2021/10/03 04:12:22;;;;;;;14.25;8.52;;;;;;;-144.51;100.00;69251.94;5078072;28;20048;-64
2021/10/03 04:15:08;;;;;;;;;;;;;;;-144.51;100.00;69251.94;5079976;28;20040;-65
2021/10/03 04:17:53;;;;;;;21.58;9.65;;;;;;;-144.51;100.00;69251.94;5081148;28;19916;-64
2021/10/03 04:20:38;;;;;;;14.50;8.48;;;;;;;-144.51;100.00;69251.94;5082109;28;20480;-62
2021/10/03 04:23:22;;;;;;;14.10;8.52;;;;;;;-144.51;100.00;69251.94;5081838;28;20048;-64
2021/10/03 04:26:07;;;;;;;;;;;;;;;-144.51;100.00;69251.94;5082198;28;20040;-63
2021/10/03 04:28:52;;;;;;;13.27;8.07;;;;;;;-144.51;100.00;69251.94;5077696;28;19912;-64
2021/10/03 04:31:36;;;;;;;;;;;;;;;-144.51;100.00;69251.94;5077493;28;20496;-64
2021/10/03 04:34:21;;;;;;;12.25;7.68;;;;;;;-144.51;100.00;69251.94;5081025;28;20371;-65
2021/10/03 04:37:06;;;;;;;13.55;8.38;;;;;;;-144.51;100.00;69251.94;5074138;28;20037;-65
2021/10/03 04:39:51;;;;;;;16.50;9.20;;;;;;;-144.51;100.00;69251.94;5073546;28;20500;-64
2021/10/03 04:42:36;;;;;;;16.65;8.73;;;;;;;-144.51;100.00;69251.94;5076941;28;20036;-65
2021/10/03 04:45:21;;;;;;;;;;;;;;;-144.51;100.00;69251.94;5081827;28;20045;-64
2021/10/03 04:48:05;;;;;;;16.08;9.45;;;;;;;-144.51;100.00;69251.94;5079741;28;19913;-64
2021/10/03 04:50:50;;;;;;;;;;;;;;;-144.51;100.00;69251.94;5081787;28;20044;-64
2021/10/03 04:53:34;;;;;;;15.68;9.38;;;;;;;-144.51;100.00;69251.94;5081183;28;20360;-65
2021/10/03 04:56:19;;;;;;;;;;;;;;;-144.51;100.00;69251.94;5081819;28;20044;-64
2021/10/03 04:59:04;;;;;;;12.93;9.27;;;;;;;-144.51;100.00;69251.94;5076995;28;19913;-64
2021/10/03 05:01:49;;;;;;;;;;;;;;;-144.51;100.00;69251.94;5081783;28;20040;-65
2021/10/03 05:04:33;;;;;;;12.68;8.57;;;;;;;-144.51;100.00;69251.94;5080913;28;19916;-64
2021/10/03 05:07:18;;;;;;;13.55;8.93;;;;;;;-144.51;100.00;69251.94;5060943;28;20033;-65
2021/10/03 05:10:03;;;;;;;;;;;;;;;-144.51;100.00;69251.94;5061333;28;20056;-64
2021/10/03 05:12:48;;;;;;;14.55;9.65;;;;;;;-144.51;100.00;69251.94;5069647;28;19912;-64
2021/10/03 05:15:33;;;;;;;;;;;;;;;-144.51;100.00;69251.94;5101501;28;20044;-64
2021/10/03 05:18:17;;;;;;;16.50;9.82;;;;;;;-144.51;100.00;69251.94;5099047;28;19912;-63
2021/10/03 05:21:03;;;;;;;;;;;;;;;-144.51;100.00;69251.94;5101313;28;20479;-63
2021/10/03 05:23:48;;;;;;;18.10;9.45;;;;;;;-144.51;100.00;69251.94;5101227;28;19912;-63
2021/10/03 05:26:34;;;;;;;17.63;9.05;;;;;;;-144.51;100.00;69251.94;5100492;28;20040;-63
2021/10/03 05:29:19;;;;;;;19.52;9.60;;;;;;;-144.51;100.00;69251.94;5095704;28;20028;-64
2021/10/03 05:32:04;;;;;;;20.05;9.75;;;;;;;-144.51;100.00;69251.94;5095139;28;20048;-64
2021/10/03 05:34:49;;;;;;;;;;;;;;;-144.51;100.00;69251.94;5101254;28;20032;-64
2021/10/03 05:37:35;;;;;;;13.82;9.82;;;;;;;-144.51;100.00;69251.94;5100938;28;19911;-64
2021/10/03 05:40:20;;;;;;;15.55;9.82;;;;;;;-144.51;100.00;69251.94;5100772;28;20399;-64
2021/10/03 05:43:04;;;;;;;14.00;9.32;;;;;;;-144.51;100.00;69251.94;5100784;28;20402;-63
2021/10/03 05:45:49;;;;;;;21.13;9.30;;;;;;;-144.51;100.00;69251.94;5100691;28;20032;-64
2021/10/03 05:48:34;;;;;;;16.27;9.48;;;;;;;-144.51;100.00;69251.94;5097681;28;20044;-64
2021/10/03 05:51:20;;;;;;;17.55;9.95;;;;;;;-144.51;100.00;69251.94;5100624;28;20043;-64
2021/10/03 05:54:04;;;;;;;;;;;;;;;-144.51;100.00;69251.94;5100932;28;20483;-61
2021/10/03 05:56:49;;;;;;;18.57;9.80;;;;;;;-144.51;100.00;69251.94;5100473;28;19912;-64
2021/10/03 05:59:34;;;;;;;19.38;10.65;;;;;;;-144.51;100.00;69251.94;5094642;28;20044;-64
2021/10/03 06:02:19;;;;;;;;;;;;;;;-144.51;100.00;69251.94;5100785;28;20406;-64
2021/10/03 06:05:04;;;;;;;20.58;9.27;;;;;;;-144.51;100.00;69251.94;5100487;28;19916;-64
2021/10/03 06:07:49;;;;;;;26.98;10.20;;;;;;;-144.51;100.00;69251.94;5099380;28;20507;-64
2021/10/03 06:10:34;;;;;;;17.92;10.50;;;;;;;-144.51;100.00;69251.94;5100178;28;20040;-64
2021/10/03 06:13:19;;;;;;;15.70;10.07;;;;;;;-144.51;100.00;69251.94;5100156;28;20039;-64
2021/10/03 06:16:04;;;;;;;17.60;10.05;;;;;;;-144.51;100.00;69251.94;5100242;28;20044;-64
2021/10/03 06:18:49;;;;;;;;;;;;;;;-144.51;100.00;69251.94;5097119;28;20052;-64
2021/10/03 06:21:34;;;;;;;16.92;9.95;;;;;;;-144.51;100.00;69251.94;5100026;28;19916;-64
2021/10/03 06:24:21;;;;;;;13.77;8.68;;;;;;;-144.51;100.00;69251.94;5099777;28;20035;-63
2021/10/03 06:27:05;;;;;;;14.70;8.45;;;;;;;-144.51;100.00;69251.94;5099688;28;20044;-63
2021/10/03 06:29:52;;;;;;;15.07;9.25;;;;;;;-144.51;100.00;69251.94;5093303;28;20036;-63
2021/10/03 06:32:38;;;;;;;21.65;9.07;;;;;;;-144.51;100.00;69251.94;5099600;28;20044;-63
2021/10/03 06:35:23;;;;;;;22.95;8.95;;;;;;;-144.51;100.00;69251.94;5099677;28;20048;-63
2021/10/03 06:38:08;;;;;;;22.60;9.57;;;;;;;-144.51;100.00;69251.94;5097100;28;20032;-63
2021/10/03 06:40:53;;;;;;;16.42;8.77;;;;;;;-144.51;100.00;69251.94;5099480;28;20044;-64
2021/10/03 06:43:40;;;;;;;24.38;9.00;;;;;;;-144.51;100.00;69251.94;5099652;28;20493;-64
2021/10/03 06:46:25;;;;;;;17.25;8.35;;;;;;;-144.51;100.00;69251.94;5099309;28;20088;-64
2021/10/03 06:49:10;;;;;;;16.67;7.78;;;;;;;-144.51;100.00;69251.94;5091566;28;20384;-64
2021/10/03 06:51:55;;;;;;;10.25;7.15;;;;;;;-144.51;100.00;69251.94;5079251;28;20040;-64
2021/10/03 06:54:40;;;;;;;18.13;7.57;;;;;;;-144.51;100.00;69251.94;5078928;28;20052;-64
2021/10/03 06:57:25;;;;;;;11.27;7.32;;;;;;;-144.51;100.00;69251.94;5079056;28;20036;-65
2021/10/03 07:00:10;;;;;;;20.30;8.27;;;;;;;-144.51;100.00;69251.94;5078807;28;20040;-66
2021/10/03 07:02:55;;;;;;;9.27;5.95;;;;;;;-144.51;100.00;69251.94;5078680;28;20041;-60
2021/10/03 07:05:40;;;;;;;;;;;;;;;-144.51;100.00;69251.94;5082850;28;20048;-60
2021/10/03 07:08:25;;;;;;;16.30;6.97;;;;;;;-144.51;100.00;69251.94;5078532;28;19912;-59
2021/10/03 07:11:09;;;;;;;13.35;7.70;;;;;;;-144.51;100.00;69251.94;5080266;28;20049;-60
2021/10/03 07:13:54;;;;;;;14.32;6.97;;;;;;;-144.51;100.00;69251.94;5080001;28;20032;-59
2021/10/03 07:16:39;;;;;;;14.48;8.50;;;;;;;-144.51;100.00;69251.94;5080074;28;20495;-60
2021/10/03 07:19:24;;;;;;;12.65;7.50;;;;;;;-144.51;100.00;69251.94;5074474;28;20037;-60
2021/10/03 07:22:09;;;;;;;14.05;7.40;;;;;;;-144.51;100.00;69251.94;5079340;28;20045;-59
2021/10/03 07:24:54;;;;;;;13.88;7.85;;;;;;;-144.51;100.00;69251.94;5080413;28;20045;-59
2021/10/03 07:27:39;;;;;;;12.88;7.32;;;;;;;-144.51;100.00;69251.94;5081004;28;20040;-59
2021/10/03 07:30:24;;;;;;;14.32;7.65;;;;;;;-144.51;100.00;69251.94;5079839;28;20044;-58
2021/10/03 07:33:09;;;;;;;12.00;7.32;;;;;;;-144.51;100.00;69251.94;5079642;28;20048;-59
2021/10/03 07:35:54;;;;;;;13.65;7.32;;;;;;;-144.51;100.00;69251.94;5074201;28;20040;-61
2021/10/03 07:38:39;;;;;;;12.48;6.57;;;;;;;-144.51;100.00;69251.94;5071956;28;20032;-61
2021/10/03 07:41:24;;;;;;;11.40;5.80;;;;;;;-144.51;100.00;69251.94;5078562;28;20399;-58
2021/10/03 07:44:09;;;;;;;15.48;6.65;;;;;;;-144.51;100.00;69251.94;5078878;28;20045;-58
2021/10/03 07:46:54;;;;;;;12.75;6.35;;;;;;;-144.51;100.00;69251.94;5078749;28;20037;-59
2021/10/03 07:49:39;;;;;;;13.63;6.10;;;;;;;-144.51;100.00;69251.94;5073491;28;20040;-58
2021/10/03 07:52:24;;;;;;;14.93;6.75;;;;;;;-144.51;100.00;69251.94;5082998;28;20404;-58
2021/10/03 07:55:09;;;;;;;19.70;7.82;;;;;;;-144.51;100.00;69251.94;5085202;28;20045;-58
2021/10/03 07:57:58;;;;;;;12.98;5.93;;;;;;;-144.51;100.00;69251.94;5085290;28;20044;-58
2021/10/03 08:00:43;;;;;;;9.15;6.22;;;;;;;-144.51;100.00;69251.94;5087078;28;20048;-58
2021/10/03 08:03:28;;;;;;;9.13;5.70;;;;;;;-144.51;100.00;69251.94;5086477;28;20396;-58
2021/10/03 08:06:13;;;;;;;9.40;4.88;;;;;;;-144.51;100.00;69251.94;5086465;28;20052;-58
2021/10/03 08:08:59;;;;;;;9.13;5.05;;;;;;;-144.51;100.00;69251.94;5082013;28;20037;-58
2021/10/03 08:11:44;;;;;;;15.10;4.20;;;;;;;-144.51;100.00;69251.94;5081491;28;20053;-63
2021/10/03 08:14:29;;;;;;;22.40;6.25;;;;;;;-144.51;100.00;69251.94;5082312;28;20036;-57
2021/10/03 08:17:14;;;;;;;27.33;8.95;;;;;;;-144.51;100.00;69251.94;5087169;28;20484;-59
2021/10/03 08:19:59;;;;;;;30.17;10.13;;;;;;;-144.51;100.00;69251.94;5075073;28;20032;-62
2021/10/03 08:22:44;;;;;;;33.88;11.15;;;;;;;-144.51;100.00;69251.94;5069892;28;20501;-61
2021/10/03 08:25:29;;;;;;;36.42;10.70;;;;;;;-144.51;100.00;69251.94;5064891;28;20032;-62
2021/10/03 08:28:14;;;;;;;80.20;14.30;;;;;;;-144.51;100.00;69251.94;5080186;28;20048;-61
2021/10/03 08:30:59;;;;;;;83.60;15.30;;;;;;;-144.51;100.00;69251.94;5076961;28;20044;-61
2021/10/03 08:33:44;;;;;;;49.13;12.20;;;;;;;-144.51;100.00;69251.94;5081522;28;20411;-61
2021/10/03 08:36:29;;;;;;;28.13;7.78;;;;;;;-144.51;100.00;69251.94;5072980;28;20037;-61
2021/10/03 08:39:14;;;;;;;56.63;15.57;;;;;;;-144.51;100.00;69251.94;5077165;28;20044;-61
2021/10/03 08:42:01;;;;;;;38.97;12.07;;;;;;;-144.51;100.00;69251.94;5082759;28;20040;-61
2021/10/03 08:44:47;;;;;;;21.98;8.70;;;;;;;-144.51;100.00;69251.94;5087650;28;20045;-61
2021/10/03 08:47:32;;;;;;;18.85;7.32;;;;;;;-144.51;100.00;69251.94;5080035;28;20431;-61
2021/10/03 08:50:19;;;;;;;43.17;14.93;;;;;;;-144.51;100.00;69251.94;5079745;28;20472;-62
2021/10/03 08:53:04;;;;;;;32.75;12.27;;;;;;;-144.51;100.00;69251.94;5080550;28;20045;-61
2021/10/03 08:55:50;;;;;;;22.80;9.43;;;;;;;-144.51;100.00;69251.94;5073189;28;20415;-63
2021/10/03 08:58:34;;;;;;;30.42;12.45;;;;;;;-144.51;100.00;69251.94;5078450;28;20045;-63
2021/10/03 09:01:21;;;;;;;6.13;3.35;;;;;;;-144.51;100.00;69251.94;5080353;28;20619;-62
2021/10/03 09:04:05;;;;;;;44.17;15.40;;;;;;;-144.51;100.00;69251.94;5080951;28;20032;-62
2021/10/03 09:07:07;;;;;;;29.17;10.43;;;;;;;-144.51;100.00;69251.94;5078323;28;20036;-62
2021/10/03 09:09:53;;;;;;;19.15;8.52;;;;;;;-144.51;100.00;69251.94;5074596;28;20025;-63
2021/10/03 09:12:39;;;;;;;27.60;9.10;;;;;;;-144.51;100.00;69251.94;5081233;28;20407;-62
2021/10/03 09:15:24;;;;;;;30.15;11.25;;;;;;;-144.51;100.00;69251.94;5081065;28;20048;-62
2021/10/03 09:18:09;;;;;;;47.53;12.75;;;;;;;-144.51;100.00;69251.94;5079372;28;20036;-62
2021/10/03 09:20:53;;;;;;;24.80;10.45;;;;;;;-144.51;100.00;69251.94;5080886;28;20044;-63
2021/10/03 09:23:40;;;;;;;30.17;11.40;;;;;;;-144.51;100.00;69251.94;5080984;28;20048;-62
2021/10/03 09:26:25;;;;;;;25.85;9.77;;;;;;;-144.51;100.00;69251.94;5081058;28;20044;-63
2021/10/03 09:29:27;;;;;;;38.75;12.23;;;;;;;-144.51;100.00;69251.94;5076239;28;20496;-64
2021/10/03 09:32:18;;;;;;;16.35;6.00;;;;;;;-144.51;100.00;69251.94;5109378;22;20492;-78
2021/10/03 09:35:03;;;;;;;12.82;5.63;;;;;;;-144.51;100.00;69251.94;5091007;28;20036;-78
2021/10/03 09:37:47;;;;;;;43.03;12.25;;;;;;;-144.51;100.00;69251.94;5094350;28;20043;-77
2021/10/03 09:40:32;;;;;;;10.43;3.70;;;;;;;-144.51;100.00;69251.94;5095150;28;20040;-79
2021/10/03 09:43:16;;;;;;;8.38;3.58;;;;;;;-144.51;100.00;69251.94;5078447;28;20037;-78
2021/10/03 09:46:01;;;;;;;19.05;5.50;;;;;;;-144.51;100.00;69251.94;5081494;28;20037;-76
2021/10/03 09:48:49;;;;;;;13.27;4.88;;;;;;;-144.51;100.00;69251.94;5071709;28;20041;-79
2021/10/03 09:51:34;;;;;;;31.75;11.35;;;;;;;-144.51;100.00;69251.94;5077743;28;20420;-76
2021/10/03 09:54:21;;;;;;;12.38;4.70;;;;;;;-144.51;100.00;69251.94;5080780;28;20036;-77
2021/10/03 09:57:06;;;;;;;15.63;5.25;;;;;;;-144.51;100.00;69251.94;5074573;28;20111;-77
2021/10/03 09:59:51;;;;;;;6.72;3.60;;;;;;;-144.51;100.00;69251.94;5075627;28;20416;-77
2021/10/03 10:02:37;;;;;;;13.90;3.30;;;;;;;-144.51;100.00;69251.94;5074874;28;20040;-77
2021/10/03 10:05:27;;;;;;;5.70;2.85;;;;;;;-144.51;100.00;69251.94;5069306;28;20036;-78
2021/10/03 10:08:12;;;;;;;10.18;4.18;;;;;;;-144.51;100.00;69251.94;5071535;28;20036;-78
2021/10/03 10:11:04;;;;;;;16.55;6.30;;;;;;;-144.51;100.00;69251.94;5065311;28;20032;-78
2021/10/03 10:13:57;;;;;;;26.10;9.65;;;;;;;-144.51;100.00;69251.94;5072998;28;20048;-78
2021/10/03 10:16:44;;;;;;;18.58;6.85;;;;;;;-144.51;100.00;69251.94;5071652;28;20041;-78
2021/10/03 10:19:42;;;;;;;43.40;13.65;;;;;;;-144.51;100.00;69251.94;5079161;28;20032;-77
2021/10/03 10:22:29;;;;;;;73.78;22.48;;;;;;;-144.51;100.00;69251.94;5070733;28;20057;-77
2021/10/03 10:25:18;;;;;;;16.63;6.18;;;;;;;-144.51;100.00;69251.94;5067899;28;20934;-78
2021/10/03 10:28:06;;;;;;;14.57;5.68;;;;;;;-144.51;100.00;69251.94;5074910;28;20493;-79
2021/10/03 10:31:15;;;;;;;5.82;3.30;;;;;;;-144.51;100.00;69251.94;5073430;28;20045;-77
2021/10/03 10:34:04;;;;;;;9.48;3.00;;;;;;;-144.51;100.00;69251.94;5080418;28;20040;-84
2021/10/03 10:36:52;;;;;;;5.85;2.83;;;;;;;-144.51;100.00;69251.94;5058942;28;20044;-78
2021/10/03 10:39:37;;;;;;;10.85;4.13;;;;;;;-144.51;100.00;69251.94;5074520;28;20032;-79
2021/10/03 10:42:25;;;;;;;6.05;2.83;;;;;;;-144.51;100.00;69251.94;5078992;28;20040;-78
2021/10/03 10:45:33;;;;;;;45.10;13.60;;;;;;;-144.51;100.00;69251.94;5076672;28;20041;-78
2021/10/03 10:48:20;;;;;;;12.00;4.68;;;;;;;-144.51;100.00;69251.94;5080873;28;20032;-78
2021/10/03 10:51:11;;;;;;;6.18;2.88;;;;;;;-144.51;100.00;69251.94;5075462;28;20524;-78
2021/10/03 10:54:12;;;;;;;5.72;2.75;;;;;;;-144.51;100.00;69251.94;5079438;28;20032;-78
2021/10/03 10:57:08;;;;;;;9.27;3.03;;;;;;;-144.51;100.00;69251.94;5076116;28;20045;-78
2021/10/03 11:00:28;;;;;;;13.10;4.88;;;;;;;-144.51;100.00;69251.94;5079846;28;20040;-78
2021/10/03 11:03:13;;;;;;;8.70;3.10;;;;;;;-144.51;100.00;69251.94;5083019;28;20033;-79
2021/10/03 11:05:58;;;;;;;16.20;5.05;;;;;;;-144.51;100.00;69251.94;5082952;28;20040;-76
2021/10/03 11:08:58;;;;;;;8.18;4.05;;;;;;;-144.51;100.00;69251.94;5085712;28;20040;-78
2021/10/03 11:12:10;;;;;;;5.00;3.47;;;;;;;-144.51;100.00;69251.94;5088166;28;20043;-78
2021/10/03 11:15:21;;;;;;;6.38;3.47;;;;;;;-144.51;100.00;69251.94;5081313;28;20067;-78
2021/10/03 11:18:06;;;;;;;25.92;7.32;;;;;;;-144.51;100.00;69251.94;5079925;28;20041;-78
2021/10/03 11:20:57;;;;;;;18.52;7.28;;;;;;;-144.51;100.00;69251.94;5076255;28;20044;-77
2021/10/03 11:23:42;;;;;;;79.32;27.85;;;;;;;-144.51;100.00;69251.94;5085776;28;20040;-77
2021/10/03 11:26:42;;;;;;;52.08;16.17;;;;;;;-144.51;100.00;69251.94;5078354;28;20036;-78
2021/10/03 11:29:28;;;;;;;6.35;3.47;;;;;;;-144.51;100.00;69251.94;5059994;28;20033;-78
2021/10/03 11:32:37;;;;;;;6.80;3.80;;;;;;;-144.51;100.00;69251.94;5078514;28;20032;-78
2021/10/03 11:35:25;;;;;;;4.78;2.63;;;;;;;-144.51;100.00;69251.94;5082254;28;20037;-78
2021/10/03 11:38:10;;;;;;;22.80;7.78;;;;;;;-144.51;100.00;69251.94;5086815;28;20044;-78
2021/10/03 11:41:05;;;;;;;4.28;3.00;;;;;;;-144.51;100.00;69251.94;5084371;28;20048;-78
2021/10/03 11:43:53;;;;;;;5.78;2.88;;;;;;;-144.51;100.00;69251.94;5077129;28;20408;-78
2021/10/03 11:46:37;;;;;;;6.57;3.15;;;;;;;-144.51;100.00;69251.94;5082580;28;20044;-79
2021/10/03 11:49:26;;;;;;;;;;;;;;;-144.51;100.00;69251.94;5078871;28;20041;-79
2021/10/03 11:52:16;;;;;;;19.30;5.53;;;;;;;-144.51;100.00;69251.94;5077141;28;19912;-78
2021/10/03 11:55:07;;;;;;;7.35;4.18;;;;;;;-144.51;100.00;69251.94;5080789;28;20036;-78
2021/10/03 11:57:52;;;;;;;43.15;15.80;;;;;;;-144.51;100.00;69251.94;5079180;28;20036;-79
2021/10/03 12:00:54;;;;;;;10.13;3.38;;;;;;;-144.51;100.00;69251.94;5074371;28;20028;-78
2021/10/03 12:03:49;;;;;;;7.68;3.65;;;;;;;-144.51;100.00;69251.94;5068959;28;20048;-77
2021/10/03 12:06:36;;;;;;;7.40;3.58;;;;;;;-144.51;100.00;69251.94;5073867;28;20044;-80
2021/10/03 12:09:23;;;;;;;7.28;3.10;;;;;;;-144.51;100.00;69251.94;5072744;28;20048;-78
2021/10/03 12:12:08;;;;;;;11.13;3.50;;;;;;;-144.51;100.00;69251.94;5068748;28;20501;-79
2021/10/03 12:14:53;;;;;;;8.40;3.85;;;;;;;-144.51;100.00;69251.94;5075794;28;20049;-77
2021/10/03 12:17:48;;;;;;;6.22;3.83;;;;;;;-144.51;100.00;69251.94;5071638;28;20037;-78
2021/10/03 12:20:53;;;;;;;13.57;6.00;;;;;;;-144.51;100.00;69251.94;5070052;28;20045;-78
2021/10/03 12:23:51;;;;;;;8.13;3.00;;;;;;;-144.51;100.00;69251.94;5076055;28;20033;-77
2021/10/03 12:26:51;;;;;;;4.60;3.53;;;;;;;-144.51;100.00;69251.94;5072846;28;20766;-78
2021/10/03 12:29:38;;;;;;;5.60;3.40;;;;;;;-144.51;100.00;69251.94;5077830;28;20036;-77
2021/10/03 12:32:24;;;;;;;7.70;3.30;;;;;;;-144.51;100.00;69251.94;5071294;28;20048;-76
2021/10/03 12:35:09;;;;;;;11.93;4.55;;;;;;;-144.51;100.00;69251.94;5078237;28;20041;-77
2021/10/03 12:37:53;;;;;;;24.33;9.50;;;;;;;-144.51;100.00;69251.94;5081279;28;20041;-76
2021/10/03 12:40:38;;;;;;;14.98;5.63;;;;;;;-144.51;100.00;69251.94;5081310;28;20033;-78